sensor_id;sensor_type;location;lat;lon;timestamp;pressure;altitude;pressure_sealevel;temperature;humidity
54876;BME280;40764;48.472;8.166;2023-02-15T00:04:58;99535.19;;;-0.68;100.00
54876;BME280;40764;48.472;8.166;2023-02-15T00:11:09;99537.50;;;-0.86;100.00
54876;BME280;40764;48.472;8.166;2023-02-15T00:17:10;99525.91;;;-0.66;100.00
54876;BME280;40764;48.472;8.166;2023-02-15T00:23:10;99529.50;;;-0.80;100.00
54876;BME280;40764;48.472;8.166;2023-02-15T00:29:12;99527.84;;;-0.81;100.00
54876;BME280;40764;48.472;8.166;2023-02-15T00:35:13;99532.66;;;-0.55;100.00
54876;BME280;40764;48.472;8.166;2023-02-15T00:41:13;99525.88;;;-0.51;100.00
54876;BME280;40764;48.472;8.166;2023-02-15T00:47:13;99531.44;;;-0.52;100.00
54876;BME280;40764;48.472;8.166;2023-02-15T00:53:14;99529.63;;;-0.67;98.57
54876;BME280;40764;48.472;8.166;2023-02-15T00:59:14;99524.13;;;-0.80;99.87
54876;BME280;40764;48.472;8.166;2023-02-15T01:05:15;99526.59;;;-1.00;99.45
54876;BME280;40764;48.472;8.166;2023-02-15T01:11:19;99517.47;;;-0.84;100.00
54876;BME280;40764;48.472;8.166;2023-02-15T01:17:21;99513.72;;;-1.04;98.89
54876;BME280;40764;48.472;8.166;2023-02-15T01:23:22;99519.75;;;-1.17;99.46
54876;BME280;40764;48.472;8.166;2023-02-15T01:29:22;99504.34;;;-1.30;99.92
54876;BME280;40764;48.472;8.166;2023-02-15T01:35:23;99500.47;;;-1.57;99.93
54876;BME280;40764;48.472;8.166;2023-02-15T01:41:23;99490.22;;;-1.38;100.00
54876;BME280;40764;48.472;8.166;2023-02-15T01:54:07;99472.72;;;-1.49;98.91
54876;BME280;40764;48.472;8.166;2023-02-15T02:00:10;99484.00;;;-1.39;98.75
54876;BME280;40764;48.472;8.166;2023-02-15T02:06:11;99484.13;;;-1.62;97.84
54876;BME280;40764;48.472;8.166;2023-02-15T02:12:12;99484.94;;;-1.76;98.02
54876;BME280;40764;48.472;8.166;2023-02-15T02:18:39;99477.94;;;-1.62;97.79
54876;BME280;40764;48.472;8.166;2023-02-15T02:37:24;99477.56;;;-1.59;96.03
54876;BME280;40764;48.472;8.166;2023-02-15T02:43:44;99478.00;;;-1.56;95.93
54876;BME280;40764;48.472;8.166;2023-02-15T02:49:48;99471.28;;;-1.66;95.09
54876;BME280;40764;48.472;8.166;2023-02-15T02:55:55;99466.28;;;-1.84;95.45
54876;BME280;40764;48.472;8.166;2023-02-15T03:02:08;99459.06;;;-1.83;95.51
54876;BME280;40764;48.472;8.166;2023-02-15T03:08:16;99452.34;;;-1.94;95.37
54876;BME280;40764;48.472;8.166;2023-02-15T03:14:21;99443.16;;;-1.85;95.07
54876;BME280;40764;48.472;8.166;2023-02-15T03:20:31;99433.94;;;-1.82;94.39
54876;BME280;40764;48.472;8.166;2023-02-15T03:26:35;99438.53;;;-1.76;93.64
54876;BME280;40764;48.472;8.166;2023-02-15T03:32:37;99445.41;;;-1.89;93.77
54876;BME280;40764;48.472;8.166;2023-02-15T03:38:49;99444.09;;;-1.93;94.08
54876;BME280;40764;48.472;8.166;2023-02-15T03:44:59;99451.03;;;-1.98;94.45
54876;BME280;40764;48.472;8.166;2023-02-15T03:51:08;99452.59;;;-2.04;94.48
54876;BME280;40764;48.472;8.166;2023-02-15T03:57:28;99458.63;;;-2.02;93.70
54876;BME280;40764;48.472;8.166;2023-02-15T04:04:09;99455.66;;;-1.92;93.32
54876;BME280;40764;48.472;8.166;2023-02-15T04:10:12;99440.13;;;-1.82;93.05
54876;BME280;40764;48.472;8.166;2023-02-15T04:16:31;99452.97;;;-1.92;92.50
54876;BME280;40764;48.472;8.166;2023-02-15T04:22:31;99444.91;;;-2.07;93.35
54876;BME280;40764;48.472;8.166;2023-02-15T04:28:50;99447.13;;;-2.25;94.14
54876;BME280;40764;48.472;8.166;2023-02-15T04:34:51;99446.41;;;-2.19;93.31
54876;BME280;40764;48.472;8.166;2023-02-15T04:40:52;99445.19;;;-2.16;93.62
54876;BME280;40764;48.472;8.166;2023-02-15T04:46:52;99446.22;;;-2.03;92.81
54876;BME280;40764;48.472;8.166;2023-02-15T04:52:53;99436.69;;;-2.20;92.48
54876;BME280;40764;48.472;8.166;2023-02-15T05:05:09;99444.47;;;-2.25;92.78
54876;BME280;40764;48.472;8.166;2023-02-15T05:11:12;99439.63;;;-2.44;92.67
54876;BME280;40764;48.472;8.166;2023-02-15T05:17:13;99427.53;;;-2.40;93.15
54876;BME280;40764;48.472;8.166;2023-02-15T05:23:14;99425.56;;;-2.46;93.06
54876;BME280;40764;48.472;8.166;2023-02-15T05:29:14;99426.31;;;-2.38;92.37
54876;BME280;40764;48.472;8.166;2023-02-15T05:35:15;99435.03;;;-2.21;91.71
54876;BME280;40764;48.472;8.166;2023-02-15T05:41:16;99445.84;;;-2.29;91.77
54876;BME280;40764;48.472;8.166;2023-02-15T05:47:16;99452.03;;;-2.29;91.96
54876;BME280;40764;48.472;8.166;2023-02-15T05:53:16;99465.66;;;-2.38;91.99
54876;BME280;40764;48.472;8.166;2023-02-15T05:59:17;99460.97;;;-2.74;92.59
54876;BME280;40764;48.472;8.166;2023-02-15T06:05:17;99463.25;;;-2.48;92.71
54876;BME280;40764;48.472;8.166;2023-02-15T06:11:18;99474.97;;;-2.49;92.43
54876;BME280;40764;48.472;8.166;2023-02-15T06:17:18;99479.97;;;-2.46;92.37
54876;BME280;40764;48.472;8.166;2023-02-15T06:23:18;99471.84;;;-2.38;92.04
54876;BME280;40764;48.472;8.166;2023-02-15T06:29:19;99475.91;;;-2.42;91.92
54876;BME280;40764;48.472;8.166;2023-02-15T06:35:19;99483.13;;;-2.42;91.54
54876;BME280;40764;48.472;8.166;2023-02-15T06:41:20;99483.28;;;-2.44;92.09
54876;BME280;40764;48.472;8.166;2023-02-15T06:47:22;99486.53;;;-2.48;91.28
54876;BME280;40764;48.472;8.166;2023-02-15T06:53:23;99482.38;;;-2.51;91.18
54876;BME280;40764;48.472;8.166;2023-02-15T06:59:23;99481.25;;;-2.42;91.20
54876;BME280;40764;48.472;8.166;2023-02-15T07:05:25;99492.53;;;-2.46;91.11
54876;BME280;40764;48.472;8.166;2023-02-15T07:11:30;99495.38;;;-2.48;91.99
54876;BME280;40764;48.472;8.166;2023-02-15T07:17:50;99491.03;;;-2.49;92.35
54876;BME280;40764;48.472;8.166;2023-02-15T07:23:52;99493.22;;;-2.30;91.92
54876;BME280;40764;48.472;8.166;2023-02-15T07:29:52;99476.44;;;-2.24;91.88
54876;BME280;40764;48.472;8.166;2023-02-15T07:35:57;99470.88;;;-2.07;91.91
54876;BME280;40764;48.472;8.166;2023-02-15T07:42:02;99482.44;;;-1.77;90.82
54876;BME280;40764;48.472;8.166;2023-02-15T07:48:03;99471.91;;;-1.64;90.34
54876;BME280;40764;48.472;8.166;2023-02-15T07:54:08;99469.78;;;-1.83;90.70
54876;BME280;40764;48.472;8.166;2023-02-15T08:00:09;99470.81;;;-1.84;91.53
54876;BME280;40764;48.472;8.166;2023-02-15T08:06:19;99456.09;;;-1.74;92.10
54876;BME280;40764;48.472;8.166;2023-02-15T08:12:23;99461.91;;;-1.56;91.76
54876;BME280;40764;48.472;8.166;2023-02-15T08:18:29;99444.78;;;-1.40;91.48
54876;BME280;40764;48.472;8.166;2023-02-15T08:24:42;99443.88;;;-1.11;91.67
54876;BME280;40764;48.472;8.166;2023-02-15T08:30:46;99445.25;;;-0.79;91.53
54876;BME280;40764;48.472;8.166;2023-02-15T08:36:46;99435.69;;;-0.32;90.91
54876;BME280;40764;48.472;8.166;2023-02-15T08:42:47;99438.78;;;-0.35;91.75
54876;BME280;40764;48.472;8.166;2023-02-15T08:48:48;99446.13;;;0.06;91.43
54876;BME280;40764;48.472;8.166;2023-02-15T08:54:48;99434.69;;;0.32;91.34
54876;BME280;40764;48.472;8.166;2023-02-15T09:00:48;99435.38;;;0.53;91.51
54876;BME280;40764;48.472;8.166;2023-02-15T09:06:49;99424.53;;;0.88;91.95
54876;BME280;40764;48.472;8.166;2023-02-15T09:12:50;99409.06;;;1.30;91.63
54876;BME280;40764;48.472;8.166;2023-02-15T09:18:51;99411.97;;;1.61;92.17
54876;BME280;40764;48.472;8.166;2023-02-15T09:24:51;99399.28;;;1.95;91.56
54876;BME280;40764;48.472;8.166;2023-02-15T09:30:52;99397.34;;;2.22;90.19
54876;BME280;40764;48.472;8.166;2023-02-15T09:36:53;99391.59;;;2.56;90.45
54876;BME280;40764;48.472;8.166;2023-02-15T09:55:56;99373.69;;;3.56;90.88
54876;BME280;40764;48.472;8.166;2023-02-15T10:08:54;99379.94;;;4.18;87.08
54876;BME280;40764;48.472;8.166;2023-02-15T10:27:26;99379.41;;;4.10;87.68
54876;BME280;40764;48.472;8.166;2023-02-15T10:33:38;99369.28;;;4.05;87.57
54876;BME280;40764;48.472;8.166;2023-02-15T10:39:52;99369.53;;;3.97;87.27
54876;BME280;40764;48.472;8.166;2023-02-15T11:04:51;99354.06;;;4.22;85.44
54876;BME280;40764;48.472;8.166;2023-02-15T11:10:58;99350.41;;;4.65;84.56
54876;BME280;40764;48.472;8.166;2023-02-15T11:17:10;99337.09;;;4.63;84.23
54876;BME280;40764;48.472;8.166;2023-02-15T11:23:14;99327.97;;;4.88;83.91
54876;BME280;40764;48.472;8.166;2023-02-15T11:29:32;99319.13;;;5.22;80.88
54876;BME280;40764;48.472;8.166;2023-02-15T11:35:46;99310.66;;;5.54;79.89
54876;BME280;40764;48.472;8.166;2023-02-15T11:41:53;99296.03;;;5.78;79.18
54876;BME280;40764;48.472;8.166;2023-02-15T11:47:56;99279.72;;;6.13;79.16
54876;BME280;40764;48.472;8.166;2023-02-15T11:53:57;99265.13;;;6.31;77.19
54876;BME280;40764;48.472;8.166;2023-02-15T12:00:14;99259.06;;;6.69;76.96
54876;BME280;40764;48.472;8.166;2023-02-15T12:06:36;99255.78;;;6.84;75.19
54876;BME280;40764;48.472;8.166;2023-02-15T12:12:38;99239.97;;;6.98;75.66
54876;BME280;40764;48.472;8.166;2023-02-15T12:18:56;99240.94;;;6.92;75.73
54876;BME280;40764;48.472;8.166;2023-02-15T12:24:59;99237.06;;;6.88;76.50
54876;BME280;40764;48.472;8.166;2023-02-15T12:31:02;99228.03;;;6.82;77.02
54876;BME280;40764;48.472;8.166;2023-02-15T12:37:09;99218.38;;;6.74;76.90
54876;BME280;40764;48.472;8.166;2023-02-15T12:43:32;99218.78;;;6.83;77.37
54876;BME280;40764;48.472;8.166;2023-02-15T12:49:37;99219.22;;;7.08;76.26
54876;BME280;40764;48.472;8.166;2023-02-15T12:55:37;99207.25;;;6.93;76.58
54876;BME280;40764;48.472;8.166;2023-02-15T13:01:38;99206.34;;;7.21;75.90
54876;BME280;40764;48.472;8.166;2023-02-15T13:07:44;99199.69;;;7.11;75.27
54876;BME280;40764;48.472;8.166;2023-02-15T13:14:03;99187.84;;;7.01;75.07
54876;BME280;40764;48.472;8.166;2023-02-15T13:20:09;99189.72;;;7.00;76.14
54876;BME280;40764;48.472;8.166;2023-02-15T13:26:21;99182.16;;;7.02;76.25
54876;BME280;40764;48.472;8.166;2023-02-15T13:32:28;99174.00;;;7.02;76.98
54876;BME280;40764;48.472;8.166;2023-02-15T13:38:45;99171.16;;;7.14;75.57
54876;BME280;40764;48.472;8.166;2023-02-15T13:51:59;99158.91;;;7.11;75.39
54876;BME280;40764;48.472;8.166;2023-02-15T13:58:51;99160.66;;;6.84;77.32
54876;BME280;40764;48.472;8.166;2023-02-15T14:04:59;99163.03;;;6.64;77.93
54876;BME280;40764;48.472;8.166;2023-02-15T14:17:41;99169.84;;;6.04;79.23
54876;BME280;40764;48.472;8.166;2023-02-15T14:24:18;99164.53;;;6.09;79.56
54876;BME280;40764;48.472;8.166;2023-02-15T14:30:25;99173.19;;;5.95;79.86
54876;BME280;40764;48.472;8.166;2023-02-15T14:56:30;99182.41;;;5.82;80.28
54876;BME280;40764;48.472;8.166;2023-02-15T15:02:44;99191.31;;;5.42;82.91
54876;BME280;40764;48.472;8.166;2023-02-15T15:08:46;99195.75;;;5.72;81.87
54876;BME280;40764;48.472;8.166;2023-02-15T15:14:48;99206.41;;;6.13;79.73
54876;BME280;40764;48.472;8.166;2023-02-15T15:20:50;99206.84;;;6.22;79.35
54876;BME280;40764;48.472;8.166;2023-02-15T15:26:51;99214.34;;;6.32;78.07
54876;BME280;40764;48.472;8.166;2023-02-15T15:33:25;99213.25;;;6.16;78.28
54876;BME280;40764;48.472;8.166;2023-02-15T15:52:21;99212.53;;;4.75;83.73
54876;BME280;40764;48.472;8.166;2023-02-15T15:58:35;99217.53;;;4.48;84.70
54876;BME280;40764;48.472;8.166;2023-02-15T16:04:35;99223.66;;;4.14;85.78
54876;BME280;40764;48.472;8.166;2023-02-15T16:10:36;99228.63;;;3.98;86.92
54876;BME280;40764;48.472;8.166;2023-02-15T16:16:37;99231.44;;;3.73;88.21
54876;BME280;40764;48.472;8.166;2023-02-15T16:22:38;99239.09;;;3.58;88.02
54876;BME280;40764;48.472;8.166;2023-02-15T16:28:38;99250.41;;;3.30;89.84
54876;BME280;40764;48.472;8.166;2023-02-15T16:34:53;99254.91;;;2.93;90.75
54876;BME280;40764;48.472;8.166;2023-02-15T16:40:55;99259.59;;;2.48;93.21
54876;BME280;40764;48.472;8.166;2023-02-15T16:46:57;99257.94;;;2.47;93.49
54876;BME280;40764;48.472;8.166;2023-02-15T16:52:58;99260.94;;;2.32;93.68
54876;BME280;40764;48.472;8.166;2023-02-15T16:59:02;99265.09;;;2.28;93.69
54876;BME280;40764;48.472;8.166;2023-02-15T17:11:22;99295.84;;;2.21;93.69
54876;BME280;40764;48.472;8.166;2023-02-15T17:17:32;99292.53;;;2.18;93.48
54876;BME280;40764;48.472;8.166;2023-02-15T17:23:37;99302.59;;;2.05;93.48
54876;BME280;40764;48.472;8.166;2023-02-15T17:29:44;99298.66;;;1.94;94.56
54876;BME280;40764;48.472;8.166;2023-02-15T17:36:11;99306.34;;;1.91;94.73
54876;BME280;40764;48.472;8.166;2023-02-15T17:42:13;99305.50;;;1.97;94.48
54876;BME280;40764;48.472;8.166;2023-02-15T17:48:22;99305.34;;;1.85;95.43
54876;BME280;40764;48.472;8.166;2023-02-15T17:54:24;99306.00;;;1.74;95.38
54876;BME280;40764;48.472;8.166;2023-02-15T18:00:52;99301.88;;;1.65;96.03
54876;BME280;40764;48.472;8.166;2023-02-15T18:07:12;99304.78;;;1.63;96.17
54876;BME280;40764;48.472;8.166;2023-02-15T18:13:32;99306.88;;;1.48;95.91
54876;BME280;40764;48.472;8.166;2023-02-15T18:19:33;99294.84;;;1.44;96.48
54876;BME280;40764;48.472;8.166;2023-02-15T18:25:34;99290.94;;;1.46;96.28
54876;BME280;40764;48.472;8.166;2023-02-15T18:31:35;99289.06;;;1.40;96.87
54876;BME280;40764;48.472;8.166;2023-02-15T18:37:35;99289.06;;;1.34;97.31
54876;BME280;40764;48.472;8.166;2023-02-15T18:43:36;99277.28;;;1.28;97.05
54876;BME280;40764;48.472;8.166;2023-02-15T18:49:36;99276.00;;;1.37;97.21
54876;BME280;40764;48.472;8.166;2023-02-15T18:55:37;99275.38;;;1.35;97.17
54876;BME280;40764;48.472;8.166;2023-02-15T19:01:38;99268.75;;;1.31;97.18
54876;BME280;40764;48.472;8.166;2023-02-15T19:07:38;99258.44;;;1.21;97.80
54876;BME280;40764;48.472;8.166;2023-02-15T19:13:39;99256.13;;;1.25;97.54
54876;BME280;40764;48.472;8.166;2023-02-15T19:19:39;99264.00;;;1.13;97.20
54876;BME280;40764;48.472;8.166;2023-02-15T19:25:40;99264.59;;;1.35;97.13
54876;BME280;40764;48.472;8.166;2023-02-15T19:31:41;99265.66;;;1.28;96.58
54876;BME280;40764;48.472;8.166;2023-02-15T19:37:46;99248.69;;;1.20;97.29
54876;BME280;40764;48.472;8.166;2023-02-15T19:43:52;99244.97;;;1.08;96.82
54876;BME280;40764;48.472;8.166;2023-02-15T19:50:00;99239.56;;;1.15;97.53
54876;BME280;40764;48.472;8.166;2023-02-15T19:56:02;99236.69;;;1.16;97.51
54876;BME280;40764;48.472;8.166;2023-02-15T20:02:03;99235.66;;;1.04;97.19
54876;BME280;40764;48.472;8.166;2023-02-15T20:08:05;99249.53;;;1.01;97.51
54876;BME280;40764;48.472;8.166;2023-02-15T20:14:12;99250.56;;;0.93;98.12
54876;BME280;40764;48.472;8.166;2023-02-15T20:20:13;99257.00;;;0.99;97.98
54876;BME280;40764;48.472;8.166;2023-02-15T20:26:15;99256.16;;;0.85;97.86
54876;BME280;40764;48.472;8.166;2023-02-15T20:32:17;99260.91;;;0.77;98.28
54876;BME280;40764;48.472;8.166;2023-02-15T20:38:22;99259.69;;;0.79;98.38
54876;BME280;40764;48.472;8.166;2023-02-15T20:44:30;99254.50;;;0.98;97.93
54876;BME280;40764;48.472;8.166;2023-02-15T20:50:31;99259.47;;;0.94;96.82
54876;BME280;40764;48.472;8.166;2023-02-15T20:56:32;99262.56;;;0.84;96.99
54876;BME280;40764;48.472;8.166;2023-02-15T21:02:32;99262.56;;;0.84;97.04
54876;BME280;40764;48.472;8.166;2023-02-15T21:08:33;99277.06;;;0.83;97.48
54876;BME280;40764;48.472;8.166;2023-02-15T21:14:34;99278.09;;;0.69;97.68
54876;BME280;40764;48.472;8.166;2023-02-15T21:20:35;99272.72;;;0.69;98.44
54876;BME280;40764;48.472;8.166;2023-02-15T21:26:36;99278.72;;;0.71;97.89
54876;BME280;40764;48.472;8.166;2023-02-15T21:32:40;99282.44;;;0.77;97.00
54876;BME280;40764;48.472;8.166;2023-02-15T21:38:42;99290.13;;;0.67;97.50
54876;BME280;40764;48.472;8.166;2023-02-15T21:44:42;99306.25;;;0.67;97.60
54876;BME280;40764;48.472;8.166;2023-02-15T21:51:01;99299.00;;;0.60;97.62
54876;BME280;40764;48.472;8.166;2023-02-15T21:57:20;99301.03;;;0.52;97.85
54876;BME280;40764;48.472;8.166;2023-02-15T22:03:22;99297.53;;;0.45;98.65
54876;BME280;40764;48.472;8.166;2023-02-15T22:09:25;99297.75;;;0.56;98.33
54876;BME280;40764;48.472;8.166;2023-02-15T22:15:34;99285.72;;;0.33;98.59
54876;BME280;40764;48.472;8.166;2023-02-15T22:21:35;99285.31;;;0.42;98.95
54876;BME280;40764;48.472;8.166;2023-02-15T22:27:38;99297.31;;;0.53;98.17
54876;BME280;40764;48.472;8.166;2023-02-15T22:33:39;99299.00;;;0.60;98.25
54876;BME280;40764;48.472;8.166;2023-02-15T22:39:40;99298.56;;;0.50;98.00
54876;BME280;40764;48.472;8.166;2023-02-15T22:45:40;99296.69;;;0.44;97.86
54876;BME280;40764;48.472;8.166;2023-02-15T22:51:41;99297.47;;;0.25;98.54
54876;BME280;40764;48.472;8.166;2023-02-15T22:57:42;99296.22;;;0.21;98.67
54876;BME280;40764;48.472;8.166;2023-02-15T23:03:43;99295.84;;;0.37;98.44
54876;BME280;40764;48.472;8.166;2023-02-15T23:09:44;99299.94;;;0.26;98.21
54876;BME280;40764;48.472;8.166;2023-02-15T23:15:46;99301.59;;;0.27;98.11
54876;BME280;40764;48.472;8.166;2023-02-15T23:21:50;99302.25;;;0.29;98.04
54876;BME280;40764;48.472;8.166;2023-02-15T23:27:51;99320.25;;;0.29;97.92
54876;BME280;40764;48.472;8.166;2023-02-15T23:33:59;99307.78;;;0.15;97.75
54876;BME280;40764;48.472;8.166;2023-02-15T23:40:00;99316.22;;;0.05;98.44
54876;BME280;40764;48.472;8.166;2023-02-15T23:46:23;99296.16;;;0.01;97.95
54876;BME280;40764;48.472;8.166;2023-02-15T23:52:23;99299.50;;;0.16;99.22
54876;BME280;40764;48.472;8.166;2023-02-15T23:58:32;99290.38;;;0.11;98.33
